Time;durP1;ratioP1;P1;durP2;ratioP2;P2;SDS_P1;SDS_P2;PMS_P1;PMS_P2;Temp;Humidity;BMP_temperature;BMP_pressure;BME280_temperature;BME280_humidity;BME280_pressure;Samples;Min_cycle;Max_cycle;Signal;HPM_P1;HPM_P2
2021/03/30 00:00:13;;;;;;;9.83;3.70;;;10.90;91.10;;;;;;5135988;27;20023;-65
2021/03/30 00:02:38;;;;;;;10.07;3.88;;;10.90;91.00;;;;;;5137310;27;20732;-65
2021/03/30 00:05:05;;;;;;;13.63;4.80;;;10.80;90.80;;;;;;5135971;27;20039;-65
2021/03/30 00:07:30;;;;;;;9.32;4.10;;;10.80;91.80;;;;;;5137236;27;20027;-65
2021/03/30 00:09:56;;;;;;;9.87;4.50;;;10.80;91.80;;;;;;5136914;27;20037;-65
2021/03/30 00:12:22;;;;;;;11.03;4.97;;;10.80;92.30;;;;;;5136686;27;20024;-65
2021/03/30 00:14:47;;;;;;;6.37;4.00;;;10.70;92.20;;;;;;5137598;27;20379;-65
2021/03/30 00:17:13;;;;;;;11.10;3.87;;;10.70;92.10;;;;;;5136666;27;20084;-65
2021/03/30 00:19:39;;;;;;;8.60;3.78;;;10.70;92.40;;;;;;5136527;27;20257;-65
2021/03/30 00:22:05;;;;;;;7.40;3.95;;;10.60;92.20;;;;;;5135809;27;20023;-65
2021/03/30 00:24:30;;;;;;;16.23;6.07;;;10.60;92.60;;;;;;5136568;27;20413;-65
2021/03/30 00:26:56;;;;;;;8.03;4.97;;;10.80;94.30;;;;;;5136840;27;20288;-65
2021/03/30 00:29:21;;;;;;;8.87;4.20;;;10.90;94.20;;;;;;5136788;27;20020;-64
2021/03/30 00:31:47;;;;;;;9.07;4.13;;;10.70;95.40;;;;;;5136706;27;20026;-65
2021/03/30 00:34:13;;;;;;;9.20;4.87;;;10.60;95.70;;;;;;5137039;27;20019;-65
2021/03/30 00:36:38;;;;;;;14.37;4.43;;;10.50;95.20;;;;;;5136447;27;20019;-65
2021/03/30 00:39:04;;;;;;;13.23;4.77;;;10.50;96.30;;;;;;5136169;27;20468;-65
2021/03/30 00:41:38;;;;;;;12.90;4.90;;;10.40;96.70;;;;;;5136258;27;20293;-65
2021/03/30 00:44:11;;;;;;;11.13;4.80;;;10.40;97.80;;;;;;5136229;27;20023;-65
2021/03/30 00:46:39;;;;;;;9.48;4.40;;;10.30;97.50;;;;;;5136398;27;20027;-65
2021/03/30 00:49:05;;;;;;;9.57;4.53;;;10.20;97.40;;;;;;5136325;27;20019;-65
2021/03/30 00:51:30;;;;;;;13.10;5.25;;;10.20;98.50;;;;;;5136542;27;20025;-65
2021/03/30 00:53:56;;;;;;;11.83;6.10;;;10.20;98.30;;;;;;5136367;27;20030;-65
2021/03/30 00:56:22;;;;;;;15.60;5.93;;;10.10;98.50;;;;;;5136239;27;20576;-66
2021/03/30 00:58:48;;;;;;;10.90;4.50;;;10.10;98.70;;;;;;5136143;27;20034;-64
2021/03/30 01:01:14;;;;;;;7.32;4.20;;;10.10;98.60;;;;;;5136219;27;20027;-64
2021/03/30 01:03:40;;;;;;;12.87;4.87;;;10.10;99.00;;;;;;5135675;27;20071;-64
2021/03/30 01:06:05;;;;;;;9.93;5.20;;;10.00;99.20;;;;;;5135732;27;20019;-65
2021/03/30 01:08:46;;;;;;;11.67;3.87;;;10.00;99.80;;;;;;5135853;27;20023;-65
2021/03/30 01:11:33;;;;;;;18.67;10.80;;;9.90;99.90;;;;;;5135538;27;20020;-65
2021/03/30 01:14:30;;;;;;;37.42;22.42;;;9.80;99.90;;;;;;5134221;27;20121;-64
2021/03/30 01:17:22;;;;;;;44.80;24.92;;;9.80;99.90;;;;;;5110012;27;20027;-64
2021/03/30 01:20:18;;;;;;;20.10;11.18;;;9.70;99.90;;;;;;5130221;27;20035;-64
2021/03/30 01:23:03;;;;;;;31.92;19.00;;;9.70;99.90;;;;;;5135413;27;20019;-64
2021/03/30 01:25:31;;;;;;;13.98;8.32;;;9.60;99.90;;;;;;5133966;27;20031;-64
2021/03/30 01:28:06;;;;;;;6.95;4.55;;;9.60;99.90;;;;;;5135179;27;20034;-65
2021/03/30 01:30:34;;;;;;;7.60;4.00;;;9.60;99.90;;;;;;5135427;27;20486;-65
2021/03/30 01:33:10;;;;;;;11.32;6.03;;;9.50;99.90;;;;;;5135375;27;20027;-65
2021/03/30 01:35:38;;;;;;;14.82;7.15;;;9.50;99.90;;;;;;5135353;27;20023;-65
2021/03/30 01:38:06;;;;;;;17.25;8.90;;;9.50;99.90;;;;;;5133858;27;20468;-65
2021/03/30 01:40:35;;;;;;;21.90;14.02;;;9.40;99.90;;;;;;5135129;27;20027;-65
2021/03/30 01:43:02;;;;;;;11.48;6.13;;;9.40;99.90;;;;;;5135011;27;20019;-65
2021/03/30 01:45:29;;;;;;;21.15;10.57;;;9.30;99.90;;;;;;5135146;27;20023;-64
2021/03/30 01:47:55;;;;;;;12.93;4.78;;;9.30;99.90;;;;;;5135489;27;20406;-65
2021/03/30 01:50:22;;;;;;;7.95;3.42;;;9.30;99.90;;;;;;5135094;27;20034;-65
2021/03/30 01:52:48;;;;;;;;;;;9.20;99.90;;;;;;5135376;27;20066;-65
2021/03/30 01:55:15;;;;;;;8.13;3.28;;;9.20;99.50;;;;;;5134913;27;19910;-65
2021/03/30 01:57:46;;;;;;;8.23;3.70;;;9.20;99.30;;;;;;5134945;27;20094;-65
2021/03/30 02:00:13;;;;;;;6.32;3.08;;;9.10;99.20;;;;;;5133689;27;20019;-64
2021/03/30 02:02:42;;;;;;;6.78;3.20;;;9.10;99.00;;;;;;5135165;27;20132;-65
2021/03/30 02:05:09;;;;;;;10.38;3.22;;;9.10;98.90;;;;;;5134712;27;20019;-66
2021/03/30 02:07:35;;;;;;;5.93;3.10;;;9.00;99.10;;;;;;5134690;27;20023;-65
2021/03/30 02:10:07;;;;;;;6.60;3.22;;;9.10;99.80;;;;;;5134259;27;20030;-65
2021/03/30 02:12:40;;;;;;;6.97;3.53;;;9.10;99.40;;;;;;5134358;27;20035;-65
2021/03/30 02:15:08;;;;;;;11.82;3.80;;;9.10;99.40;;;;;;5134654;27;20011;-64
2021/03/30 02:17:46;;;;;;;9.52;3.63;;;9.00;99.50;;;;;;5134299;27;20039;-64
2021/03/30 02:20:22;;;;;;;8.23;3.63;;;8.90;99.70;;;;;;5134713;27;20460;-65
2021/03/30 02:22:49;;;;;;;8.45;3.33;;;9.00;99.90;;;;;;5134600;27;20031;-66
2021/03/30 02:25:17;;;;;;;6.78;3.58;;;9.10;99.90;;;;;;5134600;27;20015;-65
2021/03/30 02:27:44;;;;;;;5.15;3.28;;;9.00;99.80;;;;;;5134696;27;20122;-65
2021/03/30 02:30:13;;;;;;;7.43;3.50;;;9.00;99.90;;;;;;5134218;27;20048;-65
2021/03/30 02:32:41;;;;;;;7.40;3.63;;;8.90;99.90;;;;;;5134581;27;20044;-65
2021/03/30 02:35:09;;;;;;;6.53;3.40;;;8.90;99.90;;;;;;5134095;27;20106;-65
2021/03/30 02:37:36;;;;;;;7.38;3.65;;;8.80;99.90;;;;;;5134005;27;20076;-65
2021/03/30 02:40:06;;;;;;;6.60;3.42;;;8.80;99.90;;;;;;5133927;27;20447;-65
2021/03/30 02:42:34;;;;;;;5.95;3.03;;;8.80;99.90;;;;;;5133855;27;20102;-64
2021/03/30 02:45:01;;;;;;;7.35;3.25;;;8.70;99.90;;;;;;5133185;27;20030;-65
2021/03/30 02:47:27;;;;;;;9.43;3.83;;;8.70;99.90;;;;;;5132555;27;20061;-65
2021/03/30 02:49:54;;;;;;;8.80;3.40;;;8.70;99.90;;;;;;5133911;28;20055;-64
2021/03/30 02:52:23;;;;;;;6.15;3.50;;;8.60;99.90;;;;;;5133869;28;20261;-65
2021/03/30 02:54:50;;;;;;;5.47;2.53;;;8.60;99.90;;;;;;5134501;28;20098;-64
2021/03/30 02:57:17;;;;;;;4.75;2.75;;;8.60;99.70;;;;;;5134733;28;20482;-65
2021/03/30 02:59:43;;;;;;;6.45;3.30;;;8.50;99.00;;;;;;5135103;28;20080;-65
2021/03/30 03:02:12;;;;;;;6.70;2.53;;;8.50;98.70;;;;;;5133645;28;20019;-64
2021/03/30 03:04:38;;;;;;;5.72;2.60;;;8.50;96.30;;;;;;5133923;28;20042;-65
2021/03/30 03:07:05;;;;;;;4.83;2.50;;;8.60;96.60;;;;;;5133726;28;20027;-65
2021/03/30 03:09:33;;;;;;;3.60;2.35;;;8.50;95.90;;;;;;5133659;28;20053;-65
2021/03/30 03:11:59;;;;;;;5.15;2.65;;;8.40;95.20;;;;;;5132032;28;20035;-65
2021/03/30 03:14:25;;;;;;;5.43;2.58;;;8.40;95.00;;;;;;5133645;28;20062;-65
2021/03/30 03:16:52;;;;;;;7.60;2.13;;;8.30;95.10;;;;;;5133679;28;20023;-65
2021/03/30 03:19:19;;;;;;;4.63;2.42;;;8.30;95.30;;;;;;5133753;28;20031;-65
2021/03/30 03:21:45;;;;;;;;;;;8.20;95.40;;;;;;5133931;28;20023;-65
2021/03/30 03:24:12;;;;;;;4.93;2.53;;;8.20;95.80;;;;;;5133582;28;19998;-65
2021/03/30 03:26:39;;;;;;;4.88;2.70;;;8.10;96.00;;;;;;5133550;28;20050;-65
2021/03/30 03:29:19;;;;;;;5.30;2.80;;;8.10;96.00;;;;;;5132155;28;20462;-66
2021/03/30 03:31:46;;;;;;;4.88;2.67;;;8.10;96.00;;;;;;5133512;28;20015;-66
2021/03/30 03:34:12;;;;;;;4.25;2.63;;;8.10;95.90;;;;;;5133747;28;20020;-64
2021/03/30 03:36:43;;;;;;;5.88;3.20;;;8.10;96.10;;;;;;5131982;28;20019;-65
2021/03/30 03:39:11;;;;;;;8.95;5.38;;;8.10;96.40;;;;;;5133747;28;20035;-65
2021/03/30 03:41:37;;;;;;;12.00;6.10;;;8.10;97.20;;;;;;5132024;28;20504;-65
2021/03/30 03:44:03;;;;;;;25.77;14.73;;;8.10;99.90;;;;;;5133191;28;20106;-66
2021/03/30 03:46:29;;;;;;;38.25;21.20;;;8.10;99.90;;;;;;5133649;28;20023;-65
2021/03/30 03:48:55;;;;;;;7.32;3.90;;;8.10;99.90;;;;;;5133887;28;20028;-65
2021/03/30 03:51:22;;;;;;;20.27;12.53;;;8.00;99.90;;;;;;5133685;28;20039;-65
2021/03/30 03:53:50;;;;;;;20.65;12.73;;;8.00;99.90;;;;;;5133133;28;20517;-65
2021/03/30 03:56:36;;;;;;;15.68;6.95;;;7.90;99.90;;;;;;5136503;27;20153;-65
2021/03/30 03:59:06;;;;;;;15.48;7.32;;;8.10;99.90;;;;;;5137224;27;20023;-65
2021/03/30 04:01:43;;;;;;;19.15;11.23;;;8.10;99.90;;;;;;5136876;27;20019;-65
2021/03/30 04:04:23;;;;;;;18.30;9.23;;;8.00;99.90;;;;;;5137100;27;20023;-65
2021/03/30 04:06:56;;;;;;;11.13;3.92;;;7.80;99.90;;;;;;5137235;27;20102;-65
2021/03/30 04:09:22;;;;;;;7.93;3.72;;;7.80;99.90;;;;;;5137148;27;20028;-66
2021/03/30 04:11:50;;;;;;;16.45;4.00;;;7.60;99.90;;;;;;5135104;27;20150;-65
2021/03/30 04:14:18;;;;;;;10.93;3.25;;;7.60;99.90;;;;;;5136441;27;20027;-65
2021/03/30 04:16:43;;;;;;;13.75;4.70;;;7.50;99.90;;;;;;5136868;27;20027;-65
2021/03/30 04:19:14;;;;;;;8.43;3.80;;;7.50;99.90;;;;;;5136403;27;20027;-66
2021/03/30 04:21:40;;;;;;;8.90;4.22;;;7.50;99.90;;;;;;5136423;27;20015;-64
2021/03/30 04:24:09;;;;;;;10.48;6.43;;;7.50;99.90;;;;;;5136483;27;20034;-64
2021/03/30 04:26:37;;;;;;;11.10;4.97;;;7.40;99.90;;;;;;5136615;27;20015;-65
2021/03/30 04:29:04;;;;;;;10.32;4.32;;;7.50;99.90;;;;;;5136230;27;20097;-66
2021/03/30 04:31:32;;;;;;;7.80;3.60;;;7.50;99.90;;;;;;5136199;27;20027;-66
2021/03/30 04:33:57;;;;;;;11.73;3.53;;;7.40;99.90;;;;;;5136329;27;20024;-66
2021/03/30 04:36:23;;;;;;;9.63;3.80;;;7.40;99.90;;;;;;5134882;27;20131;-66
2021/03/30 04:38:49;;;;;;;7.83;3.40;;;7.40;99.90;;;;;;5136032;27;20498;-65
2021/03/30 04:41:14;;;;;;;10.27;4.10;;;7.50;99.90;;;;;;5136408;27;20083;-66
2021/03/30 04:43:40;;;;;;;8.32;3.38;;;7.50;99.90;;;;;;5136447;27;20422;-65
2021/03/30 04:46:07;;;;;;;12.63;3.50;;;7.40;99.90;;;;;;5135228;27;20048;-66
2021/03/30 04:48:33;;;;;;;9.45;3.70;;;7.40;99.90;;;;;;5136704;27;20098;-66
2021/03/30 04:50:58;;;;;;;10.23;3.33;;;7.40;99.90;;;;;;5136117;27;20059;-66
2021/03/30 04:53:24;;;;;;;9.57;3.57;;;7.40;99.90;;;;;;5134775;27;20027;-66
2021/03/30 04:55:49;;;;;;;9.83;3.47;;;7.40;99.90;;;;;;5136115;27;20030;-65
2021/03/30 04:58:15;;;;;;;8.97;3.60;;;7.40;99.90;;;;;;5136253;27;20023;-65
2021/03/30 05:00:41;;;;;;;8.97;3.23;;;7.40;99.90;;;;;;5135804;27;20027;-66
2021/03/30 05:03:07;;;;;;;6.88;3.35;;;7.40;99.90;;;;;;5136072;27;20030;-66
2021/03/30 05:05:32;;;;;;;9.77;4.00;;;7.40;99.90;;;;;;5135997;27;20019;-66
2021/03/30 05:07:58;;;;;;;11.23;3.67;;;7.40;99.90;;;;;;5135228;27;20110;-65
2021/03/30 05:10:26;;;;;;;15.73;5.27;;;7.40;99.90;;;;;;5137710;27;20054;-66
2021/03/30 05:12:52;;;;;;;10.77;3.97;;;7.50;99.90;;;;;;5143526;27;20027;-65
2021/03/30 05:15:18;;;;;;;;;;;7.40;99.90;;;;;;5140947;27;20094;-65
2021/03/30 05:17:44;;;;;;;6.15;3.40;;;7.50;99.90;;;;;;5136047;27;20373;-65
2021/03/30 05:20:10;;;;;;;13.50;6.37;;;7.40;99.90;;;;;;5137824;27;20033;-65
2021/03/30 05:22:35;;;;;;;8.05;3.97;;;7.40;99.90;;;;;;5137252;27;20027;-65
2021/03/30 05:25:02;;;;;;;8.57;3.97;;;7.40;99.90;;;;;;5135051;27;20028;-65
2021/03/30 05:27:29;;;;;;;9.25;3.80;;;7.30;99.90;;;;;;5135327;27;20029;-64
2021/03/30 05:29:54;;;;;;;;;;;7.30;99.90;;;;;;5136723;27;20038;-64
2021/03/30 05:32:20;;;;;;;10.35;3.65;;;7.30;99.90;;;;;;5139402;27;20391;-63
2021/03/30 05:34:48;;;;;;;7.38;3.40;;;7.30;99.90;;;;;;5138032;27;20387;-64
2021/03/30 05:37:14;;;;;;;10.20;4.15;;;7.30;99.90;;;;;;5138053;27;20034;-64
2021/03/30 05:39:40;;;;;;;8.15;3.70;;;7.30;99.90;;;;;;5137284;27;20027;-63
2021/03/30 05:42:07;;;;;;;8.43;3.90;;;7.30;99.90;;;;;;5136018;27;20087;-64
2021/03/30 05:44:34;;;;;;;7.60;3.78;;;7.30;99.90;;;;;;5134056;27;20583;-65
2021/03/30 05:49:46;;;;;;;7.45;3.67;;;7.40;99.90;;;;;;5135759;27;20482;-64
2021/03/30 05:52:18;;;;;;;6.72;3.90;;;7.40;99.90;;;;;;5135564;27;20119;-64
2021/03/30 05:54:46;;;;;;;7.50;3.63;;;7.40;99.90;;;;;;5135616;27;20031;-63
2021/03/30 05:57:14;;;;;;;9.45;4.40;;;7.40;99.90;;;;;;5135446;27;20027;-64
2021/03/30 05:59:43;;;;;;;8.32;3.60;;;7.40;99.90;;;;;;5135694;27;20454;-63
2021/03/30 06:02:32;;;;;;;7.57;3.83;;;7.40;99.90;;;;;;5135062;27;20046;-63
2021/03/30 06:04:59;;;;;;;10.25;4.40;;;7.40;99.90;;;;;;5135008;27;20035;-63
2021/03/30 06:07:28;;;;;;;13.63;4.70;;;7.40;99.90;;;;;;5136596;27;20054;-63
2021/03/30 06:09:55;;;;;;;12.00;5.20;;;7.40;99.90;;;;;;5135276;27;20080;-63
2021/03/30 06:12:20;;;;;;;9.98;5.05;;;7.50;99.90;;;;;;5135788;27;20080;-64
2021/03/30 06:14:48;;;;;;;11.83;5.27;;;7.40;99.90;;;;;;5133469;22;20055;-61
2021/03/30 06:17:15;;;;;;;13.93;4.95;;;7.40;99.90;;;;;;5114790;28;20015;-62
2021/03/30 06:19:54;;;;;;;16.75;4.65;;;7.50;99.90;;;;;;5114550;28;20027;-63
2021/03/30 06:22:22;;;;;;;9.27;4.63;;;7.50;99.90;;;;;;5095814;28;20023;-61
2021/03/30 06:24:51;;;;;;;11.95;6.35;;;7.50;99.90;;;;;;5114488;28;20019;-61
2021/03/30 06:27:26;;;;;;;14.02;5.03;;;7.50;99.90;;;;;;5095839;28;20106;-62
2021/03/30 06:29:54;;;;;;;11.38;4.63;;;7.60;99.90;;;;;;5114213;28;20448;-62
2021/03/30 06:32:22;;;;;;;11.07;4.93;;;7.60;99.90;;;;;;5113818;28;20038;-61
2021/03/30 06:34:54;;;;;;;10.13;5.30;;;7.60;99.90;;;;;;5113806;28;20028;-61
2021/03/30 06:37:26;;;;;;;11.25;4.72;;;7.70;99.90;;;;;;5096043;28;20118;-62
2021/03/30 06:39:52;;;;;;;10.77;4.30;;;7.70;99.90;;;;;;5114617;28;20026;-61
2021/03/30 06:42:46;;;;;;;8.80;3.90;;;7.80;99.90;;;;;;5114159;28;20023;-61
2021/03/30 06:45:12;;;;;;;9.55;3.60;;;7.80;99.90;;;;;;5096252;28;20074;-61
2021/03/30 06:47:37;;;;;;;7.50;3.67;;;7.80;99.90;;;;;;5095823;28;20045;-62
2021/03/30 06:50:09;;;;;;;9.97;3.37;;;7.90;99.90;;;;;;5095669;28;20028;-62
2021/03/30 06:52:37;;;;;;;7.82;3.85;;;8.00;99.50;;;;;;5095435;28;20106;-60
2021/03/30 06:55:12;;;;;;;5.75;3.63;;;8.00;98.80;;;;;;5113472;28;20024;-61
2021/03/30 06:57:41;;;;;;;6.70;2.70;;;8.10;98.30;;;;;;5114164;28;20031;-60
2021/03/30 07:00:07;;;;;;;8.63;3.35;;;8.10;97.90;;;;;;5113954;28;20026;-61
2021/03/30 07:02:34;;;;;;;10.75;3.10;;;8.20;97.80;;;;;;5113680;28;20020;-61
2021/03/30 07:05:00;;;;;;;8.05;3.10;;;8.30;96.80;;;;;;5113881;28;20040;-62
2021/03/30 07:07:27;;;;;;;6.88;2.97;;;8.40;96.70;;;;;;5113567;28;20020;-62
2021/03/30 07:09:53;;;;;;;9.52;3.25;;;8.50;96.50;;;;;;5095326;28;20118;-65
2021/03/30 07:12:23;;;;;;;8.02;2.80;;;8.50;96.00;;;;;;5095301;28;20055;-62
2021/03/30 07:14:50;;;;;;;9.45;3.10;;;8.60;96.30;;;;;;5095159;28;20076;-62
2021/03/30 07:17:27;;;;;;;7.00;2.75;;;8.60;95.50;;;;;;5113608;28;20468;-61
2021/03/30 07:19:54;;;;;;;;;;;8.70;95.60;;;;;;5114466;28;20483;-62
2021/03/30 07:22:24;;;;;;;7.53;3.42;;;8.80;95.40;;;;;;5096084;28;19990;-63
2021/03/30 07:24:56;;;;;;;7.55;3.22;;;8.80;95.10;;;;;;5115592;28;20019;-64
2021/03/30 07:27:27;;;;;;;7.75;3.10;;;8.90;95.00;;;;;;5096004;28;20027;-63
2021/03/30 07:29:56;;;;;;;7.75;3.20;;;9.00;94.80;;;;;;5114772;28;20020;-62
2021/03/30 07:32:49;;;;;;;9.18;3.28;;;9.10;94.60;;;;;;5117557;28;20051;-61
2021/03/30 07:35:16;;;;;;;6.45;3.20;;;9.10;94.20;;;;;;5117783;28;20103;-61
2021/03/30 07:38:09;;;;;;;9.63;3.25;;;9.20;93.90;;;;;;5117567;28;20034;-61
2021/03/30 07:40:39;;;;;;;7.00;3.33;;;9.30;93.70;;;;;;5117998;28;20028;-61
2021/03/30 07:43:11;;;;;;;5.95;3.30;;;9.30;93.70;;;;;;5100312;28;20020;-61
2021/03/30 07:45:40;;;;;;;8.05;3.00;;;9.40;93.40;;;;;;5099822;28;20039;-62
2021/03/30 07:48:10;;;;;;;6.20;3.17;;;9.50;93.40;;;;;;5103343;28;20068;-63
2021/03/30 07:50:54;;;;;;;9.82;4.88;;;9.60;93.00;;;;;;5103676;28;20061;-62
2021/03/30 07:53:50;;;;;;;8.50;3.28;;;9.70;93.10;;;;;;5122324;28;20129;-63
2021/03/30 07:56:22;;;;;;;7.15;3.78;;;9.80;92.70;;;;;;5115392;28;20061;-62
2021/03/30 07:58:47;;;;;;;10.55;3.60;;;9.90;92.30;;;;;;5121995;28;20398;-63
2021/03/30 08:01:14;;;;;;;8.50;4.07;;;10.00;92.30;;;;;;5118302;28;20073;-66
2021/03/30 08:03:44;;;;;;;8.43;3.60;;;10.10;91.90;;;;;;5117323;28;20070;-64
2021/03/30 08:06:19;;;;;;;11.88;4.15;;;10.20;91.60;;;;;;5098575;28;20024;-61
2021/03/30 08:08:49;;;;;;;8.45;4.00;;;10.40;91.40;;;;;;5117130;28;20034;-61
2021/03/30 08:11:16;;;;;;;8.95;4.03;;;10.50;91.40;;;;;;5098260;28;20051;-62
2021/03/30 08:13:53;;;;;;;11.80;4.28;;;10.60;91.20;;;;;;5098329;28;20080;-60
2021/03/30 08:16:21;;;;;;;10.85;3.75;;;10.70;90.80;;;;;;5098428;28;20023;-62
2021/03/30 08:18:48;;;;;;;9.35;3.63;;;10.80;90.40;;;;;;5116517;28;20028;-62
2021/03/30 08:21:18;;;;;;;9.02;3.78;;;10.90;90.30;;;;;;5098094;28;20020;-62
2021/03/30 08:23:54;;;;;;;8.00;4.07;;;11.00;88.80;;;;;;5098205;28;20022;-64
2021/03/30 08:26:24;;;;;;;12.25;4.07;;;11.10;88.20;;;;;;5116505;28;20171;-61
2021/03/30 08:29:13;;;;;;;7.07;3.97;;;11.20;86.60;;;;;;5116609;28;20043;-61
2021/03/30 08:31:42;;;;;;;10.15;4.05;;;11.40;85.70;;;;;;5116322;28;20035;-61
2021/03/30 08:34:23;;;;;;;7.60;3.90;;;11.50;84.40;;;;;;5097842;28;20134;-63
2021/03/30 08:36:51;;;;;;;8.23;4.05;;;11.60;84.30;;;;;;5097908;28;20020;-61
2021/03/30 08:39:20;;;;;;;9.15;3.83;;;11.70;83.90;;;;;;5116326;28;20024;-61
2021/03/30 08:41:54;;;;;;;8.50;4.00;;;11.90;83.30;;;;;;5115226;28;20019;-61
2021/03/30 08:44:29;;;;;;;6.70;3.25;;;12.00;80.90;;;;;;5097407;28;20027;-63
2021/03/30 08:46:56;;;;;;;7.85;3.70;;;12.30;80.30;;;;;;5116645;28;20379;-60
2021/03/30 08:49:32;;;;;;;8.90;3.75;;;12.40;78.70;;;;;;5097997;28;20028;-60
2021/03/30 08:52:04;;;;;;;8.65;3.85;;;12.80;78.30;;;;;;5116200;28;20023;-61
2021/03/30 08:54:42;;;;;;;9.88;3.83;;;15.00;73.70;;;;;;5097409;28;20034;-61
2021/03/30 08:57:11;;;;;;;9.68;5.05;;;18.00;62.20;;;;;;5116105;28;20020;-64
2021/03/30 08:59:39;;;;;;;6.57;3.47;;;20.90;53.20;;;;;;5115680;28;20063;-66
2021/03/30 09:02:09;;;;;;;8.45;3.80;;;23.20;46.00;;;;;;5115659;28;20035;-66
2021/03/30 09:04:42;;;;;;;13.38;3.60;;;25.10;41.70;;;;;;5097467;28;20024;-65
2021/03/30 09:07:09;;;;;;;7.18;3.65;;;26.20;39.50;;;;;;5115972;28;20076;-61
2021/03/30 09:09:36;;;;;;;8.88;3.35;;;28.20;37.10;;;;;;5115955;28;20024;-61
2021/03/30 09:12:18;;;;;;;7.43;3.10;;;29.60;35.30;;;;;;5115476;28;20027;-62
2021/03/30 09:14:58;;;;;;;6.30;3.20;;;30.20;34.20;;;;;;5115416;28;20039;-61
2021/03/30 09:17:24;;;;;;;7.50;3.08;;;30.60;33.40;;;;;;5115743;28;20020;-63
2021/03/30 09:19:51;;;;;;;6.90;3.38;;;31.10;32.60;;;;;;5115261;28;20035;-61
2021/03/30 09:25:07;;;;;;;10.05;3.17;;;32.70;31.70;;;;;;5116032;28;20456;-63
2021/03/30 09:27:40;;;;;;;4.43;2.85;;;33.50;30.60;;;;;;5116007;28;20015;-62
2021/03/30 09:30:11;;;;;;;7.32;3.03;;;33.20;30.40;;;;;;5115259;28;20416;-62
2021/03/30 09:32:39;;;;;;;5.18;3.13;;;33.50;30.50;;;;;;5115448;28;20468;-62
2021/03/30 09:35:11;;;;;;;4.60;2.53;;;34.10;30.30;;;;;;5115010;28;20053;-63
2021/03/30 09:38:05;;;;;;;7.07;3.00;;;34.70;30.00;;;;;;5114680;28;20536;-62
2021/03/30 09:40:42;;;;;;;4.75;2.63;;;34.60;29.80;;;;;;5115166;28;20027;-61
2021/03/30 09:43:10;;;;;;;7.53;2.80;;;34.90;29.50;;;;;;5115078;28;20053;-61
2021/03/30 09:45:38;;;;;;;5.15;2.85;;;35.00;29.30;;;;;;5114921;28;20012;-61
2021/03/30 09:48:08;;;;;;;5.60;3.40;;;35.00;29.50;;;;;;5115086;28;20107;-61
2021/03/30 09:50:39;;;;;;;7.45;2.80;;;35.20;29.30;;;;;;5116678;28;20024;-61
2021/03/30 09:53:08;;;;;;;4.05;2.65;;;35.00;29.20;;;;;;5114816;28;20024;-61
2021/03/30 09:55:37;;;;;;;6.32;2.47;;;34.80;30.00;;;;;;5114687;28;20047;-64
2021/03/30 09:58:17;;;;;;;6.05;2.90;;;34.50;29.40;;;;;;5115093;28;20024;-62
2021/03/30 10:00:49;;;;;;;6.40;3.22;;;34.80;29.40;;;;;;5114504;28;20019;-62
2021/03/30 10:03:16;;;;;;;9.30;2.90;;;35.10;29.30;;;;;;5114449;28;20052;-62
2021/03/30 10:05:44;;;;;;;4.05;2.38;;;34.50;29.60;;;;;;5114431;28;20051;-62
2021/03/30 10:08:27;;;;;;;5.28;2.72;;;34.70;29.20;;;;;;5115385;28;20024;-62
2021/03/30 10:10:55;;;;;;;8.55;3.20;;;34.00;29.50;;;;;;5114983;28;20024;-62
2021/03/30 10:13:36;;;;;;;7.15;2.70;;;34.90;29.40;;;;;;5114711;28;20027;-62
2021/03/30 10:16:07;;;;;;;7.45;2.55;;;35.50;29.30;;;;;;5115013;28;20367;-65
2021/03/30 10:18:34;;;;;;;4.10;2.63;;;35.80;29.00;;;;;;5114775;28;20156;-63
2021/03/30 10:21:13;;;;;;;6.07;3.03;;;36.00;28.70;;;;;;5114315;28;20065;-62
2021/03/30 10:23:41;;;;;;;7.38;2.85;;;36.50;29.00;;;;;;5114078;28;20076;-61
2021/03/30 10:26:27;;;;;;;8.02;3.38;;;36.40;28.60;;;;;;5114153;28;20046;-61
2021/03/30 10:29:02;;;;;;;12.65;4.47;;;36.00;28.90;;;;;;5114408;28;20031;-61
2021/03/30 10:31:37;;;;;;;8.07;3.33;;;35.70;28.80;;;;;;5114015;28;20047;-61
2021/03/30 10:34:19;;;;;;;7.13;3.17;;;35.40;29.10;;;;;;5113922;28;20022;-62
2021/03/30 10:36:44;;;;;;;10.07;3.63;;;35.80;29.20;;;;;;5095641;28;20027;-63
2021/03/30 10:39:10;;;;;;;9.68;4.00;;;35.30;29.20;;;;;;5114028;28;20027;-61
2021/03/30 10:41:44;;;;;;;6.72;3.60;;;35.50;29.60;;;;;;5114200;28;20024;-64
2021/03/30 10:44:17;;;;;;;8.85;4.22;;;36.00;29.30;;;;;;5095265;28;20537;-65
2021/03/30 10:46:47;;;;;;;8.80;4.05;;;36.30;29.40;;;;;;5096540;28;20430;-63
2021/03/30 10:49:14;;;;;;;8.30;4.15;;;35.60;29.60;;;;;;5095353;28;20024;-62
2021/03/30 10:51:42;;;;;;;7.68;4.25;;;36.10;29.40;;;;;;5113993;28;20029;-60
2021/03/30 10:54:11;;;;;;;14.82;5.13;;;35.90;29.50;;;;;;5113746;28;20024;-61
2021/03/30 10:56:38;;;;;;;8.10;3.63;;;34.30;29.80;;;;;;5113889;28;20019;-62
2021/03/30 10:59:15;;;;;;;13.40;4.55;;;34.60;30.10;;;;;;5114333;28;20046;-63
2021/03/30 11:01:41;;;;;;;6.80;3.92;;;34.30;30.00;;;;;;5095503;28;20112;-69
2021/03/30 11:04:08;;;;;;;6.85;4.43;;;34.70;30.30;;;;;;5113956;28;20052;-62
2021/03/30 11:06:34;;;;;;;8.25;4.10;;;34.50;30.10;;;;;;5117329;28;20031;-62
2021/03/30 11:09:00;;;;;;;9.35;4.68;;;33.10;30.80;;;;;;5117975;28;20028;-61
2021/03/30 11:11:25;;;;;;;8.75;4.40;;;30.80;31.80;;;;;;5117848;28;20094;-61
2021/03/30 11:13:51;;;;;;;7.68;4.15;;;29.70;33.40;;;;;;5117924;28;20034;-62
2021/03/30 11:16:17;;;;;;;9.77;4.18;;;28.00;34.40;;;;;;5117828;28;20187;-61
2021/03/30 11:18:43;;;;;;;10.18;4.40;;;26.70;35.80;;;;;;5099313;28;20496;-61
2021/03/30 11:21:08;;;;;;;11.27;4.82;;;25.50;37.10;;;;;;5099459;28;20058;-62
2021/03/30 11:23:35;;;;;;;10.43;4.60;;;24.60;38.60;;;;;;5117729;28;20043;-62
2021/03/30 11:26:00;;;;;;;7.70;4.70;;;24.10;39.60;;;;;;5117485;28;20019;-61
2021/03/30 11:28:30;;;;;;;;;;;23.70;40.30;;;;;;5118102;28;20128;-62
2021/03/30 11:31:00;;;;;;;14.77;4.65;;;23.40;40.40;;;;;;5118077;28;20336;-61
2021/03/30 11:35:56;;;;;;;8.95;4.28;;;22.90;41.40;;;;;;5118530;28;20142;-61
2021/03/30 11:38:22;;;;;;;9.82;4.40;;;22.60;41.60;;;;;;5117741;28;20135;-60
2021/03/30 11:40:47;;;;;;;;;;;22.50;42.10;;;;;;5117764;28;20027;-61
2021/03/30 11:43:14;;;;;;;11.82;4.80;;;22.30;42.30;;;;;;5099201;28;20335;-64
2021/03/30 11:45:40;;;;;;;8.00;4.20;;;22.30;42.30;;;;;;5118076;28;20035;-60
2021/03/30 11:48:07;;;;;;;9.98;4.30;;;22.10;42.70;;;;;;5098772;28;20020;-60
2021/03/30 11:50:33;;;;;;;10.38;4.55;;;22.10;42.80;;;;;;5117436;28;20027;-60
2021/03/30 11:52:59;;;;;;;;;;;22.10;42.60;;;;;;5117637;28;20035;-61
2021/03/30 11:55:25;;;;;;;11.38;4.60;;;22.00;42.10;;;;;;5117592;28;19979;-59
2021/03/30 11:57:52;;;;;;;15.60;4.97;;;21.80;42.00;;;;;;5098971;28;20028;-61
2021/03/30 12:00:19;;;;;;;7.50;4.07;;;21.80;42.10;;;;;;5117152;28;20024;-59
2021/03/30 12:02:49;;;;;;;13.15;4.82;;;21.80;42.50;;;;;;5117006;28;20464;-61
2021/03/30 12:05:18;;;;;;;10.43;4.43;;;21.90;42.80;;;;;;5116853;28;20028;-61
2021/03/30 12:07:43;;;;;;;9.15;4.45;;;21.90;42.30;;;;;;5116961;28;20392;-61
2021/03/30 12:10:09;;;;;;;7.43;4.32;;;21.90;41.40;;;;;;5117486;28;20082;-62
2021/03/30 12:12:35;;;;;;;12.05;4.47;;;21.90;41.20;;;;;;5117188;28;20115;-60
2021/03/30 12:15:03;;;;;;;8.20;4.07;;;21.90;41.30;;;;;;5156752;22;20043;-65
2021/03/30 12:17:29;;;;;;;10.65;4.80;;;22.00;40.80;;;;;;5140249;27;20019;-66
2021/03/30 12:19:55;;;;;;;11.50;4.60;;;21.90;41.20;;;;;;5138542;27;20114;-65
2021/03/30 12:22:20;;;;;;;10.55;5.10;;;21.90;41.40;;;;;;5139105;27;20051;-66
2021/03/30 12:24:46;;;;;;;10.82;4.15;;;22.00;41.50;;;;;;5139553;27;20075;-66
2021/03/30 12:27:12;;;;;;;8.77;4.45;;;22.00;41.40;;;;;;5138585;27;20019;-65
2021/03/30 12:29:38;;;;;;;6.60;4.25;;;22.20;41.00;;;;;;5138676;27;20039;-64
2021/03/30 12:32:05;;;;;;;8.82;4.30;;;22.20;40.00;;;;;;5137447;27;20035;-64
2021/03/30 12:34:31;;;;;;;11.93;4.50;;;22.30;40.70;;;;;;5138074;27;20179;-65
2021/03/30 12:36:57;;;;;;;13.27;4.10;;;22.30;40.50;;;;;;5138440;27;20050;-64
2021/03/30 12:39:23;;;;;;;7.68;4.28;;;22.40;40.70;;;;;;5136221;27;20509;-64
2021/03/30 12:41:48;;;;;;;10.70;3.97;;;22.40;39.90;;;;;;5136867;27;20019;-64
2021/03/30 12:44:14;;;;;;;10.30;4.40;;;22.40;39.70;;;;;;5139344;27;20109;-63
2021/03/30 12:46:40;;;;;;;7.30;3.85;;;22.50;40.10;;;;;;5137296;27;20102;-64
2021/03/30 12:49:05;;;;;;;8.02;3.88;;;22.50;39.60;;;;;;5137257;27;20027;-64
2021/03/30 12:51:31;;;;;;;7.38;4.00;;;22.50;39.10;;;;;;5137160;27;20019;-66
2021/03/30 12:53:58;;;;;;;9.07;3.70;;;22.60;39.00;;;;;;5137197;27;20023;-64
2021/03/30 12:56:24;;;;;;;8.27;3.40;;;22.60;39.00;;;;;;5135225;27;20534;-64
2021/03/30 12:58:50;;;;;;;7.78;3.58;;;22.70;38.90;;;;;;5138135;27;20096;-64
2021/03/30 13:01:16;;;;;;;9.80;4.07;;;22.70;38.70;;;;;;5136785;27;20111;-65
2021/03/30 13:03:41;;;;;;;7.22;3.40;;;22.80;37.40;;;;;;5135123;27;20065;-66
2021/03/30 13:06:07;;;;;;;5.80;3.38;;;22.80;36.60;;;;;;5135818;27;20359;-64
2021/03/30 13:08:33;;;;;;;6.40;3.17;;;22.90;36.60;;;;;;5134658;27;20023;-64